Babbitt, Minnesota
Current Conditions -  °F | °C
As of 7:33 AM on Tuesday 21 Oct 2014 (Local Time) from KELO Reporting Station
Overcast Overcast  
Wind Chill: 31°   Ceiling: 1600
Heat Index: 37°   Visibility: 10mi
Dew Point: 34°   Wind: 8mph
Humidity: 87%   Direction: 150°SSE
Pressure: 30.21"   Gusts: NA
Location:  47.71°N, 91.94°W
Report Text: KELO 211233Z AUTO 15007KT 10SM OVC016 03/01 A3021 RMK AO2
Loading
Personal Weather Stations






























Interactive Weather Map
Tropical Storm Tracking
New forecast layout! Learn more

10-Day Weather Forecast

Advertisements
Track Severe Weather on mobile